NPT44 EGCC-EGLL
Flight info
| Callsign | NPT44 |
|---|---|
| Flight time | N/A |
| Altitude | 17000 |
| Route | SANBA1Y N859 HON HON1H |
| Aircraft | CRJ7/M-V/N |
Departure
| Time | 2026-05-04 16:00 |
|---|---|
| Airport | Manchester Airport (EGCC) |
Arrival
| Time | N/A |
|---|---|
| Airport | London Heathrow Airport (EGLL) |
| Time | Latitude | Longitude | Altitude | Speed | Heading |
|---|---|---|---|---|---|
| 2026-05-04 15:43 | 53.36101 | -2.26791 | 264 ft | 0 kts | 322° |
| 2026-05-04 15:45 | 53.36102 | -2.26792 | 264 ft | 0 kts | 322° |
| 2026-05-04 15:47 | 53.36102 | -2.26793 | 264 ft | 0 kts | 322° |
| 2026-05-04 15:48 | 53.36103 | -2.26793 | 264 ft | 0 kts | 322° |
| 2026-05-04 15:49 | 53.36103 | -2.26794 | 264 ft | 0 kts | 322° |
| 2026-05-04 15:50 | 53.36101 | -2.26791 | 264 ft | 2 kts | 322° |
| 2026-05-04 15:50 | 53.36089 | -2.26776 | 264 ft | 3 kts | 322° |
| 2026-05-04 15:51 | 53.36074 | -2.26756 | 264 ft | 3 kts | 322° |
| 2026-05-04 15:51 | 53.36058 | -2.26735 | 264 ft | 3 kts | 322° |
| 2026-05-04 15:51 | 53.36041 | -2.26714 | 264 ft | 3 kts | 322° |
| 2026-05-04 15:51 | 53.36036 | -2.26708 | 265 ft | 4 kts | 308° |
| 2026-05-04 15:52 | 53.36036 | -2.26750 | 264 ft | 3 kts | 236° |
| 2026-05-04 15:52 | 53.36035 | -2.26752 | 264 ft | 0 kts | 233° |
| 2026-05-04 15:53 | 53.36035 | -2.26753 | 264 ft | 0 kts | 233° |
| 2026-05-04 15:53 | 53.35989 | -2.26801 | 264 ft | 17 kts | 220° |
| 2026-05-04 15:53 | 53.35893 | -2.26859 | 265 ft | 18 kts | 184° |
| 2026-05-04 15:53 | 53.35810 | -2.26863 | 264 ft | 2 kts | 179° |
| 2026-05-04 15:54 | 53.35807 | -2.26863 | 264 ft | 0 kts | 179° |
| 2026-05-04 15:54 | 53.35806 | -2.26863 | 264 ft | 0 kts | 179° |
| 2026-05-04 15:55 | 53.35744 | -2.26858 | 265 ft | 22 kts | 177° |
| 2026-05-04 15:55 | 53.35589 | -2.26844 | 265 ft | 23 kts | 178° |
| 2026-05-04 15:55 | 53.35467 | -2.26942 | 265 ft | 18 kts | 230° |
| 2026-05-04 15:55 | 53.35401 | -2.27073 | 265 ft | 16 kts | 231° |
| 2026-05-04 15:56 | 53.35324 | -2.27232 | 265 ft | 23 kts | 231° |
| 2026-05-04 15:56 | 53.35211 | -2.27365 | 265 ft | 19 kts | 184° |
| 2026-05-04 15:56 | 53.35142 | -2.27362 | 264 ft | 0 kts | 174° |
| 2026-05-04 15:56 | 53.35141 | -2.27362 | 264 ft | 0 kts | 174° |
| 2026-05-04 15:57 | 53.35131 | -2.27360 | 264 ft | 8 kts | 174° |
| 2026-05-04 15:57 | 53.35052 | -2.27347 | 265 ft | 16 kts | 175° |
| 2026-05-04 15:57 | 53.34969 | -2.27408 | 265 ft | 22 kts | 227° |
| 2026-05-04 15:58 | 53.34913 | -2.27519 | 265 ft | 9 kts | 231° |
| 2026-05-04 15:58 | 53.34902 | -2.27542 | 265 ft | 9 kts | 231° |
| 2026-05-04 15:58 | 53.34883 | -2.27582 | 265 ft | 9 kts | 231° |
| 2026-05-04 15:58 | 53.34870 | -2.27611 | 264 ft | 13 kts | 231° |
| 2026-05-04 15:59 | 53.34812 | -2.27730 | 265 ft | 42 kts | 231° |
| 2026-05-04 15:59 | 53.34675 | -2.28014 | 265 ft | 85 kts | 231° |
| 2026-05-04 15:59 | 53.34501 | -2.28375 | 265 ft | 120 kts | 231° |
| 2026-05-04 15:59 | 53.34140 | -2.29121 | 265 ft | 167 kts | 231° |
| 2026-05-04 16:00 | 53.33494 | -2.30460 | 606 ft | 188 kts | 231° |
| 2026-05-04 16:00 | 53.33316 | -2.30836 | 710 ft | 191 kts | 231° |
| 2026-05-04 16:00 | 53.32810 | -2.31910 | 993 ft | 203 kts | 232° |
| 2026-05-04 16:00 | 53.31870 | -2.33922 | 1493 ft | 221 kts | 232° |
| 2026-05-04 16:01 | 53.30983 | -2.36003 | 1932 ft | 231 kts | 240° |
| 2026-05-04 16:01 | 53.30441 | -2.38509 | 2402 ft | 237 kts | 256° |
| 2026-05-04 16:01 | 53.30246 | -2.40209 | 2680 ft | 246 kts | 261° |
| 2026-05-04 16:01 | 53.30222 | -2.40483 | 2716 ft | 248 kts | 262° |
| 2026-05-04 16:02 | 53.27872 | -2.49386 | 4223 ft | 270 kts | 225° |
| 2026-05-04 16:02 | 53.25947 | -2.51975 | 4811 ft | 275 kts | 217° |
| 2026-05-04 16:03 | 53.24245 | -2.53278 | 4948 ft | 284 kts | 197° |
| 2026-05-04 16:03 | 53.22000 | -2.53616 | 4996 ft | 289 kts | 179° |
| 2026-05-04 16:03 | 53.19891 | -2.53085 | 5043 ft | 291 kts | 168° |
| 2026-05-04 16:03 | 53.17999 | -2.52092 | 4944 ft | 295 kts | 156° |
| 2026-05-04 16:04 | 53.16437 | -2.49972 | 5007 ft | 289 kts | 130° |
| 2026-05-04 16:04 | 53.14727 | -2.44123 | 5004 ft | 288 kts | 104° |
| 2026-05-04 16:04 | 53.14317 | -2.40851 | 5002 ft | 288 kts | 98° |
| 2026-05-04 16:05 | 53.13961 | -2.37576 | 4987 ft | 288 kts | 106° |
| 2026-05-04 16:05 | 53.12912 | -2.34714 | 5017 ft | 289 kts | 130° |
| 2026-05-04 16:05 | 53.09834 | -2.30459 | 5003 ft | 290 kts | 147° |
| 2026-05-04 16:06 | 53.08098 | -2.28650 | 5001 ft | 289 kts | 149° |
| 2026-05-04 16:06 | 53.06951 | -2.27540 | 5000 ft | 288 kts | 151° |
| 2026-05-04 16:07 | 53.06032 | -2.26680 | 5082 ft | 284 kts | 152° |